sensor_id;sensor_type;location;lat;lon;timestamp;P1;durP1;ratioP1;P2;durP2;ratioP2
12840;SDS011;6487;48.626;12.486;2022-12-07T00:01:44;5.90;;;5.20;;
12840;SDS011;6487;48.626;12.486;2022-12-07T00:04:14;5.93;;;5.23;;
12840;SDS011;6487;48.626;12.486;2022-12-07T00:06:45;7.93;;;5.67;;
12840;SDS011;6487;48.626;12.486;2022-12-07T00:09:15;6.50;;;5.80;;
12840;SDS011;6487;48.626;12.486;2022-12-07T00:11:44;5.47;;;4.90;;
12840;SDS011;6487;48.626;12.486;2022-12-07T00:14:17;6.33;;;5.00;;
12840;SDS011;6487;48.626;12.486;2022-12-07T00:16:48;6.33;;;5.37;;
12840;SDS011;6487;48.626;12.486;2022-12-07T00:19:17;5.73;;;5.13;;
12840;SDS011;6487;48.626;12.486;2022-12-07T00:21:46;5.57;;;4.97;;
12840;SDS011;6487;48.626;12.486;2022-12-07T00:24:14;4.73;;;4.33;;
12840;SDS011;6487;48.626;12.486;2022-12-07T00:26:42;5.33;;;4.83;;
12840;SDS011;6487;48.626;12.486;2022-12-07T00:29:12;5.83;;;5.20;;
12840;SDS011;6487;48.626;12.486;2022-12-07T00:31:44;6.23;;;4.67;;
12840;SDS011;6487;48.626;12.486;2022-12-07T00:34:14;5.37;;;4.60;;
12840;SDS011;6487;48.626;12.486;2022-12-07T00:36:45;5.50;;;4.70;;
12840;SDS011;6487;48.626;12.486;2022-12-07T00:39:14;5.07;;;4.53;;
12840;SDS011;6487;48.626;12.486;2022-12-07T00:41:43;7.50;;;5.20;;
12840;SDS011;6487;48.626;12.486;2022-12-07T00:44:11;6.17;;;5.20;;
12840;SDS011;6487;48.626;12.486;2022-12-07T00:46:39;5.30;;;4.80;;
12840;SDS011;6487;48.626;12.486;2022-12-07T00:49:08;4.97;;;4.47;;
12840;SDS011;6487;48.626;12.486;2022-12-07T00:51:37;5.37;;;4.87;;
12840;SDS011;6487;48.626;12.486;2022-12-07T00:54:06;5.97;;;5.20;;
12840;SDS011;6487;48.626;12.486;2022-12-07T00:56:34;5.50;;;4.53;;
12840;SDS011;6487;48.626;12.486;2022-12-07T00:59:03;5.60;;;4.97;;
12840;SDS011;6487;48.626;12.486;2022-12-07T01:01:32;5.10;;;4.60;;
12840;SDS011;6487;48.626;12.486;2022-12-07T01:04:03;4.97;;;4.47;;
12840;SDS011;6487;48.626;12.486;2022-12-07T01:06:32;4.70;;;4.30;;
12840;SDS011;6487;48.626;12.486;2022-12-07T01:09:02;5.50;;;4.80;;
12840;SDS011;6487;48.626;12.486;2022-12-07T01:11:31;4.87;;;4.43;;
12840;SDS011;6487;48.626;12.486;2022-12-07T01:13:59;5.17;;;4.30;;
12840;SDS011;6487;48.626;12.486;2022-12-07T01:16:28;5.07;;;4.57;;
12840;SDS011;6487;48.626;12.486;2022-12-07T01:18:59;5.90;;;4.30;;
12840;SDS011;6487;48.626;12.486;2022-12-07T01:21:29;4.93;;;4.53;;
12840;SDS011;6487;48.626;12.486;2022-12-07T01:24:04;5.57;;;5.07;;
12840;SDS011;6487;48.626;12.486;2022-12-07T01:26:34;5.30;;;4.80;;
12840;SDS011;6487;48.626;12.486;2022-12-07T01:29:03;5.80;;;4.73;;
12840;SDS011;6487;48.626;12.486;2022-12-07T01:31:31;6.03;;;4.50;;
12840;SDS011;6487;48.626;12.486;2022-12-07T01:34:00;5.30;;;4.80;;
12840;SDS011;6487;48.626;12.486;2022-12-07T01:36:30;4.63;;;4.23;;
12840;SDS011;6487;48.626;12.486;2022-12-07T01:39:00;4.57;;;4.17;;
12840;SDS011;6487;48.626;12.486;2022-12-07T01:41:34;5.30;;;4.80;;
12840;SDS011;6487;48.626;12.486;2022-12-07T01:44:14;5.87;;;4.77;;
12840;SDS011;6487;48.626;12.486;2022-12-07T01:46:48;5.07;;;4.57;;
12840;SDS011;6487;48.626;12.486;2022-12-07T01:49:23;6.53;;;4.90;;
12840;SDS011;6487;48.626;12.486;2022-12-07T01:51:58;5.20;;;4.70;;
12840;SDS011;6487;48.626;12.486;2022-12-07T01:54:39;4.83;;;4.43;;
12840;SDS011;6487;48.626;12.486;2022-12-07T01:57:08;4.93;;;4.47;;
12840;SDS011;6487;48.626;12.486;2022-12-07T01:59:38;5.17;;;4.67;;
12840;SDS011;6487;48.626;12.486;2022-12-07T02:02:07;5.80;;;5.20;;
12840;SDS011;6487;48.626;12.486;2022-12-07T02:04:43;5.93;;;4.80;;
12840;SDS011;6487;48.626;12.486;2022-12-07T02:07:11;5.63;;;5.13;;
12840;SDS011;6487;48.626;12.486;2022-12-07T02:09:41;4.77;;;4.30;;
12840;SDS011;6487;48.626;12.486;2022-12-07T02:12:10;5.40;;;4.90;;
12840;SDS011;6487;48.626;12.486;2022-12-07T02:14:38;4.90;;;4.47;;
12840;SDS011;6487;48.626;12.486;2022-12-07T02:17:07;5.20;;;4.70;;
12840;SDS011;6487;48.626;12.486;2022-12-07T02:22:51;6.00;;;5.40;;
12840;SDS011;6487;48.626;12.486;2022-12-07T02:25:44;4.60;;;4.13;;
12840;SDS011;6487;48.626;12.486;2022-12-07T02:28:31;5.17;;;4.67;;
12840;SDS011;6487;48.626;12.486;2022-12-07T02:31:04;5.03;;;4.53;;
12840;SDS011;6487;48.626;12.486;2022-12-07T02:33:40;6.13;;;5.03;;
12840;SDS011;6487;48.626;12.486;2022-12-07T02:36:15;4.97;;;4.47;;
12840;SDS011;6487;48.626;12.486;2022-12-07T02:38:50;5.87;;;5.03;;
12840;SDS011;6487;48.626;12.486;2022-12-07T02:41:26;5.47;;;4.97;;
12840;SDS011;6487;48.626;12.486;2022-12-07T02:43:58;5.50;;;4.40;;
12840;SDS011;6487;48.626;12.486;2022-12-07T02:46:31;5.47;;;4.97;;
12840;SDS011;6487;48.626;12.486;2022-12-07T02:49:05;5.23;;;4.73;;
12840;SDS011;6487;48.626;12.486;2022-12-07T02:51:38;6.13;;;5.53;;
12840;SDS011;6487;48.626;12.486;2022-12-07T02:54:09;5.97;;;5.37;;
12840;SDS011;6487;48.626;12.486;2022-12-07T02:56:43;5.97;;;5.37;;
12840;SDS011;6487;48.626;12.486;2022-12-07T02:59:20;6.73;;;5.40;;
12840;SDS011;6487;48.626;12.486;2022-12-07T03:02:03;6.03;;;5.43;;
12840;SDS011;6487;48.626;12.486;2022-12-07T03:04:42;5.87;;;5.37;;
12840;SDS011;6487;48.626;12.486;2022-12-07T03:07:21;6.13;;;5.53;;
12840;SDS011;6487;48.626;12.486;2022-12-07T03:10:00;5.90;;;5.40;;
12840;SDS011;6487;48.626;12.486;2022-12-07T03:12:36;6.07;;;5.30;;
12840;SDS011;6487;48.626;12.486;2022-12-07T03:15:14;5.33;;;4.83;;
12840;SDS011;6487;48.626;12.486;2022-12-07T03:17:50;6.00;;;5.40;;
12840;SDS011;6487;48.626;12.486;2022-12-07T03:20:21;6.10;;;5.50;;
12840;SDS011;6487;48.626;12.486;2022-12-07T03:22:51;5.60;;;5.10;;
12840;SDS011;6487;48.626;12.486;2022-12-07T03:25:22;6.90;;;5.20;;
12840;SDS011;6487;48.626;12.486;2022-12-07T03:27:51;7.43;;;5.10;;
12840;SDS011;6487;48.626;12.486;2022-12-07T03:30:23;5.57;;;5.07;;
12840;SDS011;6487;48.626;12.486;2022-12-07T03:32:58;6.00;;;5.50;;
12840;SDS011;6487;48.626;12.486;2022-12-07T03:35:33;6.17;;;5.57;;
12840;SDS011;6487;48.626;12.486;2022-12-07T03:38:05;6.77;;;6.07;;
12840;SDS011;6487;48.626;12.486;2022-12-07T03:40:44;7.23;;;6.50;;
12840;SDS011;6487;48.626;12.486;2022-12-07T03:43:17;6.87;;;6.17;;
12840;SDS011;6487;48.626;12.486;2022-12-07T03:45:50;6.57;;;5.93;;
12840;SDS011;6487;48.626;12.486;2022-12-07T03:48:32;9.20;;;6.70;;
12840;SDS011;6487;48.626;12.486;2022-12-07T03:51:06;7.53;;;5.90;;
12840;SDS011;6487;48.626;12.486;2022-12-07T03:53:43;7.60;;;6.80;;
12840;SDS011;6487;48.626;12.486;2022-12-07T03:56:17;6.87;;;6.17;;
12840;SDS011;6487;48.626;12.486;2022-12-07T03:58:46;7.00;;;6.20;;
12840;SDS011;6487;48.626;12.486;2022-12-07T04:01:14;6.73;;;6.10;;
12840;SDS011;6487;48.626;12.486;2022-12-07T04:03:46;7.53;;;6.30;;
12840;SDS011;6487;48.626;12.486;2022-12-07T04:06:14;6.77;;;6.07;;
12840;SDS011;6487;48.626;12.486;2022-12-07T04:08:43;7.37;;;6.57;;
12840;SDS011;6487;48.626;12.486;2022-12-07T04:11:11;8.67;;;7.03;;
12840;SDS011;6487;48.626;12.486;2022-12-07T04:13:40;8.30;;;6.23;;
12840;SDS011;6487;48.626;12.486;2022-12-07T04:16:25;7.30;;;6.60;;
12840;SDS011;6487;48.626;12.486;2022-12-07T04:18:55;9.57;;;7.27;;
12840;SDS011;6487;48.626;12.486;2022-12-07T04:21:23;7.77;;;6.97;;
12840;SDS011;6487;48.626;12.486;2022-12-07T04:23:51;8.27;;;7.47;;
12840;SDS011;6487;48.626;12.486;2022-12-07T04:26:20;8.50;;;7.47;;
12840;SDS011;6487;48.626;12.486;2022-12-07T04:28:48;8.03;;;7.23;;
12840;SDS011;6487;48.626;12.486;2022-12-07T04:31:16;9.17;;;8.23;;
12840;SDS011;6487;48.626;12.486;2022-12-07T04:33:45;8.10;;;7.30;;
12840;SDS011;6487;48.626;12.486;2022-12-07T04:36:14;8.03;;;7.23;;
12840;SDS011;6487;48.626;12.486;2022-12-07T04:38:42;8.43;;;7.60;;
12840;SDS011;6487;48.626;12.486;2022-12-07T04:41:11;9.40;;;7.97;;
12840;SDS011;6487;48.626;12.486;2022-12-07T04:43:39;8.20;;;7.40;;
12840;SDS011;6487;48.626;12.486;2022-12-07T04:46:07;8.53;;;7.70;;
12840;SDS011;6487;48.626;12.486;2022-12-07T04:48:36;8.70;;;7.77;;
12840;SDS011;6487;48.626;12.486;2022-12-07T04:51:04;8.27;;;7.47;;
12840;SDS011;6487;48.626;12.486;2022-12-07T04:53:34;10.27;;;8.87;;
12840;SDS011;6487;48.626;12.486;2022-12-07T04:56:02;8.90;;;8.00;;
12840;SDS011;6487;48.626;12.486;2022-12-07T04:58:31;8.43;;;7.63;;
12840;SDS011;6487;48.626;12.486;2022-12-07T05:00:59;8.63;;;7.83;;
12840;SDS011;6487;48.626;12.486;2022-12-07T05:03:28;8.97;;;8.10;;
12840;SDS011;6487;48.626;12.486;2022-12-07T05:05:56;9.23;;;8.30;;
12840;SDS011;6487;48.626;12.486;2022-12-07T05:08:24;8.17;;;7.37;;
12840;SDS011;6487;48.626;12.486;2022-12-07T05:10:54;8.47;;;7.67;;
12840;SDS011;6487;48.626;12.486;2022-12-07T05:13:22;9.37;;;7.70;;
12840;SDS011;6487;48.626;12.486;2022-12-07T05:15:51;9.77;;;8.30;;
12840;SDS011;6487;48.626;12.486;2022-12-07T05:18:19;8.83;;;7.93;;
12840;SDS011;6487;48.626;12.486;2022-12-07T05:20:47;9.80;;;7.90;;
12840;SDS011;6487;48.626;12.486;2022-12-07T05:23:17;9.23;;;8.23;;
12840;SDS011;6487;48.626;12.486;2022-12-07T05:25:46;10.30;;;9.03;;
12840;SDS011;6487;48.626;12.486;2022-12-07T05:28:16;10.40;;;8.63;;
12840;SDS011;6487;48.626;12.486;2022-12-07T05:30:44;8.90;;;8.00;;
12840;SDS011;6487;48.626;12.486;2022-12-07T05:33:13;9.23;;;8.30;;
12840;SDS011;6487;48.626;12.486;2022-12-07T05:35:41;11.03;;;9.13;;
12840;SDS011;6487;48.626;12.486;2022-12-07T05:38:09;11.40;;;9.53;;
12840;SDS011;6487;48.626;12.486;2022-12-07T05:40:37;9.33;;;8.43;;
12840;SDS011;6487;48.626;12.486;2022-12-07T05:43:06;10.10;;;9.00;;
12840;SDS011;6487;48.626;12.486;2022-12-07T05:45:35;10.23;;;8.37;;
12840;SDS011;6487;48.626;12.486;2022-12-07T05:48:04;10.60;;;9.50;;
12840;SDS011;6487;48.626;12.486;2022-12-07T05:50:33;9.20;;;8.30;;
12840;SDS011;6487;48.626;12.486;2022-12-07T05:53:01;10.90;;;9.53;;
12840;SDS011;6487;48.626;12.486;2022-12-07T05:55:29;10.90;;;9.80;;
12840;SDS011;6487;48.626;12.486;2022-12-07T05:57:57;10.53;;;9.43;;
12840;SDS011;6487;48.626;12.486;2022-12-07T06:00:45;10.30;;;8.97;;
12840;SDS011;6487;48.626;12.486;2022-12-07T06:03:16;9.90;;;8.90;;
12840;SDS011;6487;48.626;12.486;2022-12-07T06:05:45;10.27;;;9.13;;
12840;SDS011;6487;48.626;12.486;2022-12-07T06:08:13;10.67;;;9.27;;
12840;SDS011;6487;48.626;12.486;2022-12-07T06:10:42;10.70;;;8.73;;
12840;SDS011;6487;48.626;12.486;2022-12-07T06:13:10;9.47;;;8.07;;
12840;SDS011;6487;48.626;12.486;2022-12-07T06:15:38;10.27;;;8.93;;
12840;SDS011;6487;48.626;12.486;2022-12-07T06:18:07;10.20;;;9.13;;
12840;SDS011;6487;48.626;12.486;2022-12-07T06:20:35;11.77;;;9.50;;
12840;SDS011;6487;48.626;12.486;2022-12-07T06:23:04;9.87;;;8.83;;
12840;SDS011;6487;48.626;12.486;2022-12-07T06:25:32;12.83;;;9.67;;
12840;SDS011;6487;48.626;12.486;2022-12-07T06:28:00;10.83;;;9.33;;
12840;SDS011;6487;48.626;12.486;2022-12-07T06:30:28;9.93;;;8.73;;
12840;SDS011;6487;48.626;12.486;2022-12-07T06:32:57;11.37;;;8.83;;
12840;SDS011;6487;48.626;12.486;2022-12-07T06:35:35;12.77;;;9.33;;
12840;SDS011;6487;48.626;12.486;2022-12-07T06:38:03;11.10;;;9.63;;
12840;SDS011;6487;48.626;12.486;2022-12-07T06:40:31;10.33;;;8.97;;
12840;SDS011;6487;48.626;12.486;2022-12-07T06:43:00;11.80;;;9.70;;
12840;SDS011;6487;48.626;12.486;2022-12-07T06:45:28;15.77;;;10.53;;
12840;SDS011;6487;48.626;12.486;2022-12-07T06:47:56;10.70;;;9.40;;
12840;SDS011;6487;48.626;12.486;2022-12-07T06:50:25;11.43;;;10.23;;
12840;SDS011;6487;48.626;12.486;2022-12-07T06:52:55;11.83;;;10.00;;
12840;SDS011;6487;48.626;12.486;2022-12-07T06:55:23;14.10;;;12.33;;
12840;SDS011;6487;48.626;12.486;2022-12-07T06:57:51;12.83;;;11.53;;
12840;SDS011;6487;48.626;12.486;2022-12-07T07:00:20;13.47;;;11.50;;
12840;SDS011;6487;48.626;12.486;2022-12-07T07:02:48;13.70;;;11.73;;
12840;SDS011;6487;48.626;12.486;2022-12-07T07:05:17;18.47;;;14.47;;
12840;SDS011;6487;48.626;12.486;2022-12-07T07:07:47;17.20;;;13.47;;
12840;SDS011;6487;48.626;12.486;2022-12-07T07:10:37;18.57;;;13.00;;
12840;SDS011;6487;48.626;12.486;2022-12-07T07:13:05;15.60;;;12.40;;
12840;SDS011;6487;48.626;12.486;2022-12-07T07:15:34;15.60;;;11.47;;
12840;SDS011;6487;48.626;12.486;2022-12-07T07:18:05;17.07;;;14.63;;
12840;SDS011;6487;48.626;12.486;2022-12-07T07:20:33;18.43;;;13.57;;
12840;SDS011;6487;48.626;12.486;2022-12-07T07:23:02;13.83;;;10.80;;
12840;SDS011;6487;48.626;12.486;2022-12-07T07:25:30;12.60;;;10.30;;
12840;SDS011;6487;48.626;12.486;2022-12-07T07:28:00;10.47;;;9.37;;
12840;SDS011;6487;48.626;12.486;2022-12-07T07:30:29;12.33;;;10.00;;
12840;SDS011;6487;48.626;12.486;2022-12-07T07:32:57;14.93;;;12.00;;
12840;SDS011;6487;48.626;12.486;2022-12-07T07:35:27;12.60;;;10.77;;
12840;SDS011;6487;48.626;12.486;2022-12-07T07:37:57;13.47;;;11.23;;
12840;SDS011;6487;48.626;12.486;2022-12-07T07:40:26;13.30;;;11.40;;
12840;SDS011;6487;48.626;12.486;2022-12-07T07:42:55;13.17;;;11.20;;
12840;SDS011;6487;48.626;12.486;2022-12-07T07:45:26;15.50;;;11.80;;
12840;SDS011;6487;48.626;12.486;2022-12-07T07:47:55;11.60;;;10.40;;
12840;SDS011;6487;48.626;12.486;2022-12-07T07:50:24;14.17;;;10.73;;
12840;SDS011;6487;48.626;12.486;2022-12-07T07:52:52;12.33;;;11.07;;
12840;SDS011;6487;48.626;12.486;2022-12-07T07:55:20;14.17;;;11.20;;
12840;SDS011;6487;48.626;12.486;2022-12-07T07:57:49;12.90;;;11.00;;
12840;SDS011;6487;48.626;12.486;2022-12-07T08:00:20;13.33;;;11.30;;
12840;SDS011;6487;48.626;12.486;2022-12-07T08:02:51;13.20;;;11.33;;
12840;SDS011;6487;48.626;12.486;2022-12-07T08:05:19;12.87;;;11.40;;
12840;SDS011;6487;48.626;12.486;2022-12-07T08:07:47;13.80;;;11.43;;
12840;SDS011;6487;48.626;12.486;2022-12-07T08:10:15;41.07;;;16.27;;
12840;SDS011;6487;48.626;12.486;2022-12-07T08:12:44;26.40;;;14.20;;
12840;SDS011;6487;48.626;12.486;2022-12-07T08:15:30;19.33;;;13.20;;
12840;SDS011;6487;48.626;12.486;2022-12-07T08:18:00;11.80;;;10.47;;
12840;SDS011;6487;48.626;12.486;2022-12-07T08:20:29;15.03;;;11.33;;
12840;SDS011;6487;48.626;12.486;2022-12-07T08:22:59;18.07;;;11.70;;
12840;SDS011;6487;48.626;12.486;2022-12-07T08:25:27;17.97;;;12.47;;
12840;SDS011;6487;48.626;12.486;2022-12-07T08:27:56;22.43;;;12.37;;
12840;SDS011;6487;48.626;12.486;2022-12-07T08:30:24;15.97;;;13.10;;
12840;SDS011;6487;48.626;12.486;2022-12-07T08:32:52;15.50;;;12.60;;
12840;SDS011;6487;48.626;12.486;2022-12-07T08:35:22;15.13;;;12.80;;
12840;SDS011;6487;48.626;12.486;2022-12-07T08:37:52;19.50;;;14.23;;
12840;SDS011;6487;48.626;12.486;2022-12-07T08:40:20;20.27;;;15.23;;
12840;SDS011;6487;48.626;12.486;2022-12-07T08:42:48;16.23;;;13.40;;
12840;SDS011;6487;48.626;12.486;2022-12-07T08:45:18;15.53;;;12.53;;
12840;SDS011;6487;48.626;12.486;2022-12-07T08:47:53;15.07;;;12.43;;
12840;SDS011;6487;48.626;12.486;2022-12-07T08:50:27;15.17;;;12.50;;
12840;SDS011;6487;48.626;12.486;2022-12-07T08:52:56;16.57;;;12.50;;
12840;SDS011;6487;48.626;12.486;2022-12-07T08:55:26;13.33;;;10.77;;
12840;SDS011;6487;48.626;12.486;2022-12-07T08:57:56;13.33;;;11.23;;
12840;SDS011;6487;48.626;12.486;2022-12-07T09:00:25;13.43;;;10.70;;
12840;SDS011;6487;48.626;12.486;2022-12-07T09:02:54;12.10;;;10.70;;
12840;SDS011;6487;48.626;12.486;2022-12-07T09:05:22;12.53;;;10.20;;
12840;SDS011;6487;48.626;12.486;2022-12-07T09:07:54;14.57;;;11.90;;
12840;SDS011;6487;48.626;12.486;2022-12-07T09:10:28;13.03;;;10.80;;
12840;SDS011;6487;48.626;12.486;2022-12-07T09:12:56;11.57;;;10.13;;
12840;SDS011;6487;48.626;12.486;2022-12-07T09:15:27;14.60;;;10.53;;
12840;SDS011;6487;48.626;12.486;2022-12-07T09:17:55;11.30;;;9.70;;
12840;SDS011;6487;48.626;12.486;2022-12-07T09:20:23;12.20;;;9.77;;
12840;SDS011;6487;48.626;12.486;2022-12-07T09:22:55;12.77;;;9.87;;
12840;SDS011;6487;48.626;12.486;2022-12-07T09:25:23;11.53;;;10.33;;
12840;SDS011;6487;48.626;12.486;2022-12-07T09:27:55;12.60;;;10.50;;
12840;SDS011;6487;48.626;12.486;2022-12-07T09:30:24;12.13;;;10.77;;
12840;SDS011;6487;48.626;12.486;2022-12-07T09:32:54;12.63;;;10.13;;
12840;SDS011;6487;48.626;12.486;2022-12-07T09:35:23;11.63;;;9.77;;
12840;SDS011;6487;48.626;12.486;2022-12-07T09:37:54;11.37;;;10.17;;
12840;SDS011;6487;48.626;12.486;2022-12-07T09:40:22;12.87;;;10.20;;
12840;SDS011;6487;48.626;12.486;2022-12-07T09:42:52;11.80;;;9.83;;
12840;SDS011;6487;48.626;12.486;2022-12-07T09:45:23;12.37;;;10.10;;
12840;SDS011;6487;48.626;12.486;2022-12-07T09:47:58;10.50;;;9.40;;
12840;SDS011;6487;48.626;12.486;2022-12-07T09:50:27;10.27;;;9.13;;
12840;SDS011;6487;48.626;12.486;2022-12-07T09:53:01;11.90;;;9.47;;
12840;SDS011;6487;48.626;12.486;2022-12-07T09:55:36;12.50;;;9.97;;
12840;SDS011;6487;48.626;12.486;2022-12-07T09:58:05;11.90;;;10.27;;
12840;SDS011;6487;48.626;12.486;2022-12-07T10:00:36;10.67;;;9.10;;
12840;SDS011;6487;48.626;12.486;2022-12-07T10:03:04;11.17;;;9.77;;
12840;SDS011;6487;48.626;12.486;2022-12-07T10:05:35;10.90;;;9.80;;
12840;SDS011;6487;48.626;12.486;2022-12-07T10:08:10;12.23;;;10.23;;
12840;SDS011;6487;48.626;12.486;2022-12-07T10:10:39;11.37;;;10.17;;
12840;SDS011;6487;48.626;12.486;2022-12-07T10:13:09;11.60;;;9.13;;
12840;SDS011;6487;48.626;12.486;2022-12-07T10:15:49;11.23;;;9.93;;
12840;SDS011;6487;48.626;12.486;2022-12-07T10:18:27;11.13;;;9.97;;
12840;SDS011;6487;48.626;12.486;2022-12-07T10:21:05;11.30;;;9.50;;
12840;SDS011;6487;48.626;12.486;2022-12-07T10:23:42;11.37;;;10.07;;
12840;SDS011;6487;48.626;12.486;2022-12-07T10:26:29;10.80;;;9.70;;
12840;SDS011;6487;48.626;12.486;2022-12-07T10:29:01;10.67;;;9.57;;
12840;SDS011;6487;48.626;12.486;2022-12-07T10:31:41;10.90;;;9.80;;
12840;SDS011;6487;48.626;12.486;2022-12-07T10:34:15;10.77;;;9.67;;
12840;SDS011;6487;48.626;12.486;2022-12-07T10:36:51;13.90;;;9.77;;
12840;SDS011;6487;48.626;12.486;2022-12-07T10:39:22;10.10;;;9.13;;
12840;SDS011;6487;48.626;12.486;2022-12-07T10:41:54;10.00;;;9.00;;
12840;SDS011;6487;48.626;12.486;2022-12-07T10:44:26;9.77;;;8.77;;
12840;SDS011;6487;48.626;12.486;2022-12-07T10:47:08;10.13;;;9.23;;
12840;SDS011;6487;48.626;12.486;2022-12-07T10:56:14;10.63;;;9.23;;
12840;SDS011;6487;48.626;12.486;2022-12-07T10:59:24;10.93;;;9.83;;
12840;SDS011;6487;48.626;12.486;2022-12-07T11:02:15;10.73;;;9.20;;
12840;SDS011;6487;48.626;12.486;2022-12-07T11:04:59;9.07;;;8.17;;
12840;SDS011;6487;48.626;12.486;2022-12-07T11:07:41;9.80;;;8.80;;
12840;SDS011;6487;48.626;12.486;2022-12-07T11:10:23;9.73;;;8.60;;
12840;SDS011;6487;48.626;12.486;2022-12-07T11:13:09;10.07;;;9.00;;
12840;SDS011;6487;48.626;12.486;2022-12-07T11:16:01;10.93;;;8.10;;
12840;SDS011;6487;48.626;12.486;2022-12-07T11:18:43;8.87;;;7.87;;
12840;SDS011;6487;48.626;12.486;2022-12-07T11:21:21;11.17;;;8.00;;
12840;SDS011;6487;48.626;12.486;2022-12-07T11:23:56;9.37;;;8.33;;
12840;SDS011;6487;48.626;12.486;2022-12-07T11:26:40;11.13;;;8.53;;
12840;SDS011;6487;48.626;12.486;2022-12-07T11:29:28;9.20;;;7.70;;
12840;SDS011;6487;48.626;12.486;2022-12-07T11:32:17;8.43;;;7.50;;
12840;SDS011;6487;48.626;12.486;2022-12-07T11:34:59;9.17;;;8.10;;
12840;SDS011;6487;48.626;12.486;2022-12-07T11:37:36;9.23;;;8.17;;
12840;SDS011;6487;48.626;12.486;2022-12-07T11:40:14;8.77;;;7.87;;
12840;SDS011;6487;48.626;12.486;2022-12-07T11:42:50;10.17;;;8.60;;
12840;SDS011;6487;48.626;12.486;2022-12-07T11:45:27;10.03;;;8.00;;
12840;SDS011;6487;48.626;12.486;2022-12-07T11:47:59;9.80;;;8.60;;
12840;SDS011;6487;48.626;12.486;2022-12-07T11:50:32;10.83;;;9.03;;
12840;SDS011;6487;48.626;12.486;2022-12-07T11:53:05;10.07;;;9.07;;
12840;SDS011;6487;48.626;12.486;2022-12-07T11:55:45;11.87;;;8.87;;
12840;SDS011;6487;48.626;12.486;2022-12-07T11:58:20;9.20;;;8.23;;
12840;SDS011;6487;48.626;12.486;2022-12-07T12:01:13;11.10;;;9.33;;
12840;SDS011;6487;48.626;12.486;2022-12-07T12:03:56;9.73;;;7.87;;
12840;SDS011;6487;48.626;12.486;2022-12-07T12:06:34;10.37;;;8.33;;
12840;SDS011;6487;48.626;12.486;2022-12-07T12:09:03;9.90;;;8.50;;
12840;SDS011;6487;48.626;12.486;2022-12-07T12:12:02;9.63;;;7.83;;
12840;SDS011;6487;48.626;12.486;2022-12-07T12:15:26;11.87;;;7.80;;
12840;SDS011;6487;48.626;12.486;2022-12-07T12:18:18;10.87;;;8.17;;
12840;SDS011;6487;48.626;12.486;2022-12-07T12:21:06;8.80;;;7.30;;
12840;SDS011;6487;48.626;12.486;2022-12-07T12:23:38;9.67;;;8.00;;
12840;SDS011;6487;48.626;12.486;2022-12-07T12:26:13;8.73;;;7.47;;
12840;SDS011;6487;48.626;12.486;2022-12-07T12:28:50;10.90;;;8.53;;
12840;SDS011;6487;48.626;12.486;2022-12-07T12:31:31;10.87;;;8.50;;
12840;SDS011;6487;48.626;12.486;2022-12-07T12:37:00;9.40;;;7.70;;
12840;SDS011;6487;48.626;12.486;2022-12-07T12:39:28;10.67;;;8.70;;
12840;SDS011;6487;48.626;12.486;2022-12-07T12:41:57;8.37;;;7.40;;
12840;SDS011;6487;48.626;12.486;2022-12-07T12:44:38;9.73;;;8.03;;
12840;SDS011;6487;48.626;12.486;2022-12-07T12:47:40;7.93;;;7.00;;
12840;SDS011;6487;48.626;12.486;2022-12-07T12:50:22;8.20;;;6.93;;
12840;SDS011;6487;48.626;12.486;2022-12-07T12:53:00;7.80;;;7.00;;
12840;SDS011;6487;48.626;12.486;2022-12-07T12:56:10;7.77;;;6.27;;
12840;SDS011;6487;48.626;12.486;2022-12-07T13:01:54;8.17;;;6.80;;
12840;SDS011;6487;48.626;12.486;2022-12-07T13:04:48;7.70;;;6.50;;
12840;SDS011;6487;48.626;12.486;2022-12-07T13:10:35;7.07;;;6.00;;
12840;SDS011;6487;48.626;12.486;2022-12-07T13:22:42;7.20;;;6.03;;
12840;SDS011;6487;48.626;12.486;2022-12-07T13:25:23;10.33;;;6.30;;
12840;SDS011;6487;48.626;12.486;2022-12-07T13:28:02;8.07;;;6.27;;
12840;SDS011;6487;48.626;12.486;2022-12-07T13:30:40;7.93;;;6.20;;
12840;SDS011;6487;48.626;12.486;2022-12-07T13:33:15;7.57;;;6.50;;
12840;SDS011;6487;48.626;12.486;2022-12-07T13:35:46;6.80;;;5.93;;
12840;SDS011;6487;48.626;12.486;2022-12-07T13:38:25;5.97;;;5.30;;
12840;SDS011;6487;48.626;12.486;2022-12-07T13:41:14;7.03;;;5.83;;
12840;SDS011;6487;48.626;12.486;2022-12-07T13:43:45;7.17;;;6.30;;
12840;SDS011;6487;48.626;12.486;2022-12-07T13:46:18;8.50;;;5.93;;
12840;SDS011;6487;48.626;12.486;2022-12-07T13:48:55;6.97;;;5.70;;
12840;SDS011;6487;48.626;12.486;2022-12-07T13:51:24;6.90;;;5.87;;
12840;SDS011;6487;48.626;12.486;2022-12-07T13:53:55;7.10;;;5.77;;
12840;SDS011;6487;48.626;12.486;2022-12-07T13:56:39;7.37;;;5.53;;
12840;SDS011;6487;48.626;12.486;2022-12-07T13:59:10;5.87;;;4.90;;
12840;SDS011;6487;48.626;12.486;2022-12-07T14:01:44;8.67;;;5.90;;
12840;SDS011;6487;48.626;12.486;2022-12-07T14:04:17;12.73;;;6.70;;
12840;SDS011;6487;48.626;12.486;2022-12-07T14:06:58;8.73;;;6.30;;
12840;SDS011;6487;48.626;12.486;2022-12-07T14:09:28;9.57;;;6.60;;
12840;SDS011;6487;48.626;12.486;2022-12-07T14:11:58;8.60;;;6.40;;
12840;SDS011;6487;48.626;12.486;2022-12-07T14:14:33;8.37;;;6.53;;
12840;SDS011;6487;48.626;12.486;2022-12-07T14:17:08;8.80;;;6.23;;
12840;SDS011;6487;48.626;12.486;2022-12-07T14:19:44;12.00;;;9.00;;
12840;SDS011;6487;48.626;12.486;2022-12-07T14:22:20;16.07;;;12.07;;
12840;SDS011;6487;48.626;12.486;2022-12-07T14:25:09;11.30;;;8.93;;
12840;SDS011;6487;48.626;12.486;2022-12-07T14:27:50;10.53;;;8.17;;
12840;SDS011;6487;48.626;12.486;2022-12-07T14:30:23;8.97;;;7.27;;
12840;SDS011;6487;48.626;12.486;2022-12-07T14:32:57;7.43;;;5.73;;
12840;SDS011;6487;48.626;12.486;2022-12-07T14:35:27;8.33;;;5.60;;
12840;SDS011;6487;48.626;12.486;2022-12-07T14:37:56;9.27;;;7.13;;
12840;SDS011;6487;48.626;12.486;2022-12-07T14:40:26;10.77;;;8.60;;
12840;SDS011;6487;48.626;12.486;2022-12-07T14:42:59;9.77;;;7.10;;
12840;SDS011;6487;48.626;12.486;2022-12-07T14:45:29;10.40;;;7.67;;
12840;SDS011;6487;48.626;12.486;2022-12-07T14:47:58;9.10;;;5.90;;
12840;SDS011;6487;48.626;12.486;2022-12-07T14:50:48;8.10;;;6.37;;
12840;SDS011;6487;48.626;12.486;2022-12-07T14:53:40;7.83;;;6.47;;
12840;SDS011;6487;48.626;12.486;2022-12-07T14:56:18;7.77;;;5.83;;
12840;SDS011;6487;48.626;12.486;2022-12-07T14:58:48;6.90;;;5.27;;
12840;SDS011;6487;48.626;12.486;2022-12-07T15:01:16;7.17;;;5.43;;
12840;SDS011;6487;48.626;12.486;2022-12-07T15:03:45;6.60;;;5.03;;
12840;SDS011;6487;48.626;12.486;2022-12-07T15:06:14;7.27;;;5.93;;
12840;SDS011;6487;48.626;12.486;2022-12-07T15:08:44;7.87;;;6.80;;
12840;SDS011;6487;48.626;12.486;2022-12-07T15:11:13;7.53;;;5.87;;
12840;SDS011;6487;48.626;12.486;2022-12-07T15:13:42;6.87;;;5.57;;
12840;SDS011;6487;48.626;12.486;2022-12-07T15:16:29;6.40;;;5.43;;
12840;SDS011;6487;48.626;12.486;2022-12-07T15:19:18;6.30;;;5.23;;
12840;SDS011;6487;48.626;12.486;2022-12-07T15:21:55;6.57;;;5.07;;
12840;SDS011;6487;48.626;12.486;2022-12-07T15:24:24;7.00;;;5.17;;
12840;SDS011;6487;48.626;12.486;2022-12-07T15:26:53;6.90;;;5.50;;
12840;SDS011;6487;48.626;12.486;2022-12-07T15:29:21;10.63;;;7.67;;
12840;SDS011;6487;48.626;12.486;2022-12-07T15:31:51;14.27;;;12.10;;
12840;SDS011;6487;48.626;12.486;2022-12-07T15:34:23;10.43;;;8.90;;
12840;SDS011;6487;48.626;12.486;2022-12-07T15:36:53;7.73;;;6.00;;
12840;SDS011;6487;48.626;12.486;2022-12-07T15:39:21;7.13;;;5.93;;
12840;SDS011;6487;48.626;12.486;2022-12-07T15:41:49;6.30;;;5.40;;
12840;SDS011;6487;48.626;12.486;2022-12-07T15:44:19;6.77;;;5.67;;